createdAt,value
2023-01-29T18:52:58.476Z,9.60
2023-01-29T18:55:54.682Z,9.50
2023-01-29T19:01:28.448Z,6.30
2023-01-29T19:04:15.087Z,9.10
2023-01-29T19:07:01.724Z,9.50
2023-01-29T19:09:50.720Z,10.70
2023-01-29T19:12:38.146Z,16.80
2023-01-29T19:15:24.292Z,7.20
2023-01-29T19:18:14.714Z,15.20
2023-01-29T19:21:10.520Z,15.20
2023-01-29T19:25:47.129Z,15.20
2023-01-29T19:33:58.904Z,15.20
2023-01-29T19:39:20.027Z,8.20
2023-01-29T19:41:56.039Z,19.30
2023-01-29T19:43:48.366Z,14.10
2023-01-29T19:45:49.567Z,16.70
2023-01-29T19:47:43.342Z,22.30
2023-01-29T19:52:52.568Z,22.30
2023-01-29T19:54:46.634Z,9.00
2023-01-29T19:56:38.324Z,9.30
2023-01-29T19:58:30.583Z,18.00
2023-01-29T20:00:22.408Z,15.00
2023-01-29T20:02:14.061Z,15.00
2023-01-29T20:04:37.947Z,15.00
2023-01-29T20:06:32.831Z,16.30
2023-01-29T20:08:24.532Z,20.30
2023-01-29T20:10:19.639Z,9.20
2023-01-29T20:12:12.376Z,13.60
2023-01-29T20:14:03.948Z,11.20
2023-01-29T20:22:02.263Z,11.20
2023-01-29T20:23:54.627Z,17.00
2023-01-29T20:25:46.810Z,25.10
2023-01-29T20:27:38.421Z,15.70
2023-01-29T20:32:45.398Z,15.70
2023-01-29T20:36:05.986Z,15.70
2023-01-29T20:37:57.891Z,31.00
2023-01-29T20:39:49.756Z,29.20
2023-01-29T20:41:41.898Z,24.20
2023-01-29T20:50:38.836Z,33.00
2023-01-29T21:02:15.427Z,33.00
2023-01-29T21:12:28.319Z,33.00
2023-01-29T21:22:44.004Z,33.00
2023-01-29T21:30:42.229Z,33.00
2023-01-29T21:37:18.846Z,33.00
2023-01-29T21:44:33.021Z,33.00
2023-01-29T21:55:10.922Z,33.00
2023-01-29T22:05:23.427Z,33.00
2023-01-29T22:09:41.855Z,33.00
2023-01-29T22:11:41.349Z,33.00
2023-01-29T22:14:07.595Z,33.00
2023-01-29T22:15:59.817Z,9.70
2023-01-29T22:17:51.567Z,16.20
2023-01-29T22:19:43.721Z,8.90
2023-01-29T22:22:14.738Z,8.90
2023-01-29T22:32:27.360Z,8.90
2023-01-29T22:35:03.915Z,8.90
2023-01-29T22:36:55.597Z,12.90
2023-01-29T22:38:47.521Z,13.70
2023-01-29T22:40:39.263Z,13.50
2023-01-29T22:42:31.302Z,13.60
2023-01-29T22:44:22.843Z,12.00
2023-01-29T22:46:14.651Z,13.50
2023-01-29T22:48:07.977Z,6.50
2023-01-29T22:49:59.679Z,3.90
2023-01-29T22:52:11.139Z,11.20
2023-01-29T22:54:02.572Z,10.00
2023-01-29T22:55:55.601Z,14.60
2023-01-29T22:58:05.113Z,14.60
2023-01-29T22:59:56.839Z,12.50
2023-01-29T23:01:48.754Z,6.80
2023-01-29T23:03:40.398Z,8.90
2023-01-29T23:08:46.808Z,11.00
2023-01-29T23:10:38.682Z,7.00
2023-01-29T23:12:30.485Z,8.70
2023-01-29T23:14:22.297Z,8.20
2023-01-29T23:16:15.781Z,8.70
2023-01-29T23:18:08.683Z,10.90
2023-01-29T23:20:00.549Z,10.10
2023-01-29T23:21:52.373Z,8.60
2023-01-29T23:23:45.187Z,9.50
2023-01-29T23:25:55.399Z,11.50
2023-01-29T23:27:47.588Z,14.50
2023-01-29T23:29:39.538Z,5.60
2023-01-29T23:31:32.144Z,13.10
2023-01-29T23:33:23.606Z,6.70
2023-01-29T23:35:15.279Z,7.90
2023-01-29T23:40:46.456Z,7.90
2023-01-29T23:42:37.978Z,3.90
2023-01-29T23:44:29.664Z,6.00
2023-01-29T23:46:21.063Z,12.20
2023-01-29T23:48:12.799Z,7.10
2023-01-29T23:50:04.506Z,7.70
2023-01-29T23:51:56.378Z,12.50
2023-01-29T23:53:48.179Z,10.80
2023-01-29T23:55:40.176Z,17.20
2023-01-29T23:57:31.631Z,7.70
2023-01-29T23:59:23.465Z,7.90
